< < Back
Terminal Aerodrome Forecast


Current Version              Previous Versions:   1  2  3  4  5  6  7  8  9  

Terminal Aerodrome Forecast

857
FTUS42 KFFC 261511 AAA
TAFFTY
TAF AMD
KFTY 261511Z 2615/2712 22008G18KT P6SM SCT030 BKN040
     FM262300 23005KT 6SM -SHRA BKN035
     FM270300 29005KT 4SM SHRA BR OVC012
     FM270700 32010KT P6SM OVC008=

Latest METAR

372
SAUS70 KWBC 262300
MTRFTY
METAR KFTY 262253Z 23005KT 10SM CLR 22/10 A2980 RMK AO2 SLP083
T02220100


USA.gov is the U.S. government's official web portal to all federal, state and local government web resources and services.